sensor_id;sensor_type;location;lat;lon;timestamp;P1;durP1;ratioP1;P2;durP2;ratioP2
38222;SDS011;24024;51.186;6.458;2023-12-20T00:01:34;16.45;;;10.40;;
38222;SDS011;24024;51.186;6.458;2023-12-20T00:04:05;16.77;;;8.88;;
38222;SDS011;24024;51.186;6.458;2023-12-20T00:06:32;17.42;;;8.95;;
38222;SDS011;24024;51.186;6.458;2023-12-20T00:09:00;18.17;;;8.40;;
38222;SDS011;24024;51.186;6.458;2023-12-20T00:11:27;15.55;;;7.93;;
38222;SDS011;24024;51.186;6.458;2023-12-20T00:13:53;18.20;;;8.15;;
38222;SDS011;24024;51.186;6.458;2023-12-20T00:16:20;15.18;;;7.57;;
38222;SDS011;24024;51.186;6.458;2023-12-20T00:18:47;16.73;;;7.72;;
38222;SDS011;24024;51.186;6.458;2023-12-20T00:21:14;14.15;;;6.88;;
38222;SDS011;24024;51.186;6.458;2023-12-20T00:23:41;14.05;;;6.80;;
38222;SDS011;24024;51.186;6.458;2023-12-20T00:26:07;13.38;;;7.53;;
38222;SDS011;24024;51.186;6.458;2023-12-20T00:28:34;14.75;;;6.95;;
38222;SDS011;24024;51.186;6.458;2023-12-20T00:31:03;13.23;;;7.45;;
38222;SDS011;24024;51.186;6.458;2023-12-20T00:33:31;16.58;;;8.73;;
38222;SDS011;24024;51.186;6.458;2023-12-20T00:36:03;18.20;;;8.95;;
38222;SDS011;24024;51.186;6.458;2023-12-20T00:38:30;21.58;;;11.40;;
38222;SDS011;24024;51.186;6.458;2023-12-20T00:40:59;22.05;;;11.88;;
38222;SDS011;24024;51.186;6.458;2023-12-20T00:43:26;23.08;;;13.18;;
38222;SDS011;24024;51.186;6.458;2023-12-20T00:45:55;22.40;;;12.60;;
38222;SDS011;24024;51.186;6.458;2023-12-20T00:48:28;24.77;;;12.13;;
38222;SDS011;24024;51.186;6.458;2023-12-20T00:50:57;22.30;;;11.63;;
38222;SDS011;24024;51.186;6.458;2023-12-20T00:53:24;21.08;;;12.15;;
38222;SDS011;24024;51.186;6.458;2023-12-20T00:55:50;24.63;;;11.82;;
38222;SDS011;24024;51.186;6.458;2023-12-20T00:58:22;19.80;;;10.60;;
38222;SDS011;24024;51.186;6.458;2023-12-20T01:00:51;17.08;;;10.30;;
38222;SDS011;24024;51.186;6.458;2023-12-20T01:03:19;23.10;;;10.43;;
38222;SDS011;24024;51.186;6.458;2023-12-20T01:05:45;19.10;;;9.57;;
38222;SDS011;24024;51.186;6.458;2023-12-20T01:08:12;20.70;;;9.98;;
38222;SDS011;24024;51.186;6.458;2023-12-20T01:10:41;21.60;;;9.85;;
38222;SDS011;24024;51.186;6.458;2023-12-20T01:13:10;16.33;;;9.40;;
38222;SDS011;24024;51.186;6.458;2023-12-20T01:15:40;22.15;;;10.13;;
38222;SDS011;24024;51.186;6.458;2023-12-20T01:18:09;18.00;;;9.73;;
38222;SDS011;24024;51.186;6.458;2023-12-20T01:20:38;18.33;;;8.98;;
38222;SDS011;24024;51.186;6.458;2023-12-20T01:23:05;19.85;;;9.27;;
38222;SDS011;24024;51.186;6.458;2023-12-20T01:25:32;20.35;;;8.85;;
38222;SDS011;24024;51.186;6.458;2023-12-20T01:27:59;22.10;;;9.23;;
38222;SDS011;24024;51.186;6.458;2023-12-20T01:30:29;23.45;;;9.63;;
38222;SDS011;24024;51.186;6.458;2023-12-20T01:32:59;19.65;;;9.02;;
38222;SDS011;24024;51.186;6.458;2023-12-20T01:35:28;19.67;;;8.57;;
38222;SDS011;24024;51.186;6.458;2023-12-20T01:37:54;18.02;;;8.05;;
38222;SDS011;24024;51.186;6.458;2023-12-20T01:40:26;23.35;;;8.20;;
38222;SDS011;24024;51.186;6.458;2023-12-20T01:43:07;18.00;;;8.25;;
38222;SDS011;24024;51.186;6.458;2023-12-20T01:45:36;18.95;;;6.75;;
38222;SDS011;24024;51.186;6.458;2023-12-20T01:48:03;17.70;;;5.97;;
38222;SDS011;24024;51.186;6.458;2023-12-20T01:50:32;20.88;;;5.10;;
38222;SDS011;24024;51.186;6.458;2023-12-20T01:53:01;21.70;;;5.40;;
38222;SDS011;24024;51.186;6.458;2023-12-20T01:55:31;15.55;;;4.72;;
38222;SDS011;24024;51.186;6.458;2023-12-20T01:57:59;19.02;;;4.88;;
38222;SDS011;24024;51.186;6.458;2023-12-20T02:00:32;11.02;;;4.43;;
38222;SDS011;24024;51.186;6.458;2023-12-20T02:03:02;14.95;;;4.15;;
38222;SDS011;24024;51.186;6.458;2023-12-20T02:05:30;13.52;;;4.25;;
38222;SDS011;24024;51.186;6.458;2023-12-20T02:07:57;15.73;;;4.07;;
38222;SDS011;24024;51.186;6.458;2023-12-20T02:10:27;18.15;;;4.40;;
38222;SDS011;24024;51.186;6.458;2023-12-20T02:12:57;23.08;;;4.10;;
38222;SDS011;24024;51.186;6.458;2023-12-20T02:15:25;20.42;;;4.03;;
38222;SDS011;24024;51.186;6.458;2023-12-20T02:17:54;15.25;;;3.67;;
38222;SDS011;24024;51.186;6.458;2023-12-20T02:20:24;13.57;;;3.30;;
38222;SDS011;24024;51.186;6.458;2023-12-20T02:22:53;16.98;;;3.45;;
38222;SDS011;24024;51.186;6.458;2023-12-20T02:25:20;13.75;;;3.20;;
38222;SDS011;24024;51.186;6.458;2023-12-20T02:27:48;16.98;;;3.83;;
38222;SDS011;24024;51.186;6.458;2023-12-20T02:30:18;12.98;;;3.03;;
38222;SDS011;24024;51.186;6.458;2023-12-20T02:32:49;16.60;;;3.05;;
38222;SDS011;24024;51.186;6.458;2023-12-20T02:35:16;14.05;;;3.70;;
38222;SDS011;24024;51.186;6.458;2023-12-20T02:37:45;13.82;;;3.25;;
38222;SDS011;24024;51.186;6.458;2023-12-20T02:40:15;16.65;;;3.47;;
38222;SDS011;24024;51.186;6.458;2023-12-20T02:42:44;13.30;;;3.28;;
38222;SDS011;24024;51.186;6.458;2023-12-20T02:45:13;14.43;;;3.10;;
38222;SDS011;24024;51.186;6.458;2023-12-20T02:47:42;15.95;;;2.85;;
38222;SDS011;24024;51.186;6.458;2023-12-20T02:50:09;22.30;;;3.22;;
38222;SDS011;24024;51.186;6.458;2023-12-20T02:52:37;14.48;;;3.40;;
38222;SDS011;24024;51.186;6.458;2023-12-20T02:55:04;19.52;;;3.00;;
38222;SDS011;24024;51.186;6.458;2023-12-20T02:57:33;10.68;;;3.25;;
38222;SDS011;24024;51.186;6.458;2023-12-20T03:00:02;16.65;;;3.30;;
38222;SDS011;24024;51.186;6.458;2023-12-20T03:02:29;15.57;;;3.20;;
38222;SDS011;24024;51.186;6.458;2023-12-20T03:04:57;14.10;;;3.08;;
38222;SDS011;24024;51.186;6.458;2023-12-20T03:07:26;20.38;;;3.25;;
38222;SDS011;24024;51.186;6.458;2023-12-20T03:09:56;15.60;;;3.53;;
38222;SDS011;24024;51.186;6.458;2023-12-20T03:12:42;16.98;;;3.92;;
38222;SDS011;24024;51.186;6.458;2023-12-20T03:15:10;15.00;;;3.25;;
38222;SDS011;24024;51.186;6.458;2023-12-20T03:17:37;19.95;;;3.50;;
38222;SDS011;24024;51.186;6.458;2023-12-20T03:20:06;11.85;;;3.30;;
38222;SDS011;24024;51.186;6.458;2023-12-20T03:22:37;12.00;;;3.30;;
38222;SDS011;24024;51.186;6.458;2023-12-20T03:25:04;11.18;;;3.17;;
38222;SDS011;24024;51.186;6.458;2023-12-20T03:27:33;12.60;;;3.30;;
38222;SDS011;24024;51.186;6.458;2023-12-20T03:30:00;19.95;;;3.53;;
38222;SDS011;24024;51.186;6.458;2023-12-20T03:32:31;17.73;;;3.60;;
38222;SDS011;24024;51.186;6.458;2023-12-20T03:35:01;12.25;;;3.65;;
38222;SDS011;24024;51.186;6.458;2023-12-20T03:37:28;16.88;;;3.53;;
38222;SDS011;24024;51.186;6.458;2023-12-20T03:39:59;15.10;;;3.58;;
38222;SDS011;24024;51.186;6.458;2023-12-20T03:42:29;19.00;;;3.83;;
38222;SDS011;24024;51.186;6.458;2023-12-20T03:44:56;18.50;;;3.90;;
38222;SDS011;24024;51.186;6.458;2023-12-20T03:47:22;17.83;;;4.05;;
38222;SDS011;24024;51.186;6.458;2023-12-20T03:49:54;19.75;;;5.00;;
38222;SDS011;24024;51.186;6.458;2023-12-20T03:52:21;22.77;;;3.65;;
38222;SDS011;24024;51.186;6.458;2023-12-20T03:54:50;15.77;;;3.90;;
38222;SDS011;24024;51.186;6.458;2023-12-20T03:57:17;15.50;;;3.88;;
38222;SDS011;24024;51.186;6.458;2023-12-20T03:59:44;17.85;;;4.32;;
38222;SDS011;24024;51.186;6.458;2023-12-20T04:02:11;17.80;;;3.72;;
38222;SDS011;24024;51.186;6.458;2023-12-20T04:04:38;16.30;;;4.20;;
38222;SDS011;24024;51.186;6.458;2023-12-20T04:07:05;19.08;;;3.67;;
38222;SDS011;24024;51.186;6.458;2023-12-20T04:09:32;19.65;;;4.25;;
38222;SDS011;24024;51.186;6.458;2023-12-20T04:11:59;14.73;;;4.00;;
38222;SDS011;24024;51.186;6.458;2023-12-20T04:14:29;19.95;;;4.43;;
38222;SDS011;24024;51.186;6.458;2023-12-20T04:16:56;16.23;;;3.90;;
38222;SDS011;24024;51.186;6.458;2023-12-20T04:19:25;13.98;;;3.92;;
38222;SDS011;24024;51.186;6.458;2023-12-20T04:21:52;19.15;;;4.35;;
38222;SDS011;24024;51.186;6.458;2023-12-20T04:24:21;17.42;;;4.45;;
38222;SDS011;24024;51.186;6.458;2023-12-20T04:26:51;17.42;;;4.07;;
38222;SDS011;24024;51.186;6.458;2023-12-20T04:29:21;25.13;;;4.55;;
38222;SDS011;24024;51.186;6.458;2023-12-20T04:31:48;19.20;;;4.35;;
38222;SDS011;24024;51.186;6.458;2023-12-20T04:34:16;13.45;;;4.30;;
38222;SDS011;24024;51.186;6.458;2023-12-20T04:36:43;18.80;;;4.47;;
38222;SDS011;24024;51.186;6.458;2023-12-20T04:39:11;14.57;;;3.65;;
38222;SDS011;24024;51.186;6.458;2023-12-20T04:41:41;21.00;;;4.60;;
38222;SDS011;24024;51.186;6.458;2023-12-20T04:44:08;14.30;;;4.30;;
38222;SDS011;24024;51.186;6.458;2023-12-20T04:46:37;17.02;;;4.80;;
38222;SDS011;24024;51.186;6.458;2023-12-20T04:49:04;23.00;;;4.75;;
38222;SDS011;24024;51.186;6.458;2023-12-20T04:51:32;15.48;;;4.70;;
38222;SDS011;24024;51.186;6.458;2023-12-20T04:54:00;16.85;;;4.45;;
38222;SDS011;24024;51.186;6.458;2023-12-20T04:56:27;13.48;;;4.30;;
38222;SDS011;24024;51.186;6.458;2023-12-20T04:58:54;17.67;;;4.57;;
38222;SDS011;24024;51.186;6.458;2023-12-20T05:01:21;19.23;;;4.70;;
38222;SDS011;24024;51.186;6.458;2023-12-20T05:03:50;17.08;;;5.05;;
38222;SDS011;24024;51.186;6.458;2023-12-20T05:06:17;20.13;;;4.72;;
38222;SDS011;24024;51.186;6.458;2023-12-20T05:08:44;19.90;;;5.10;;
38222;SDS011;24024;51.186;6.458;2023-12-20T05:11:11;20.35;;;4.75;;
38222;SDS011;24024;51.186;6.458;2023-12-20T05:13:41;17.17;;;4.93;;
38222;SDS011;24024;51.186;6.458;2023-12-20T05:16:16;17.17;;;4.68;;
38222;SDS011;24024;51.186;6.458;2023-12-20T05:18:45;12.15;;;3.92;;
38222;SDS011;24024;51.186;6.458;2023-12-20T05:21:15;18.85;;;4.88;;
38222;SDS011;24024;51.186;6.458;2023-12-20T05:23:41;21.58;;;5.07;;
38222;SDS011;24024;51.186;6.458;2023-12-20T05:26:08;14.00;;;4.25;;
38222;SDS011;24024;51.186;6.458;2023-12-20T05:28:35;19.80;;;4.65;;
38222;SDS011;24024;51.186;6.458;2023-12-20T05:31:08;20.27;;;4.60;;
38222;SDS011;24024;51.186;6.458;2023-12-20T05:33:37;21.52;;;4.85;;
38222;SDS011;24024;51.186;6.458;2023-12-20T05:36:09;19.00;;;4.90;;
38222;SDS011;24024;51.186;6.458;2023-12-20T05:38:39;18.55;;;4.93;;
38222;SDS011;24024;51.186;6.458;2023-12-20T05:41:09;19.58;;;5.22;;
38222;SDS011;24024;51.186;6.458;2023-12-20T05:43:39;16.80;;;4.78;;
38222;SDS011;24024;51.186;6.458;2023-12-20T05:46:10;30.85;;;5.43;;
38222;SDS011;24024;51.186;6.458;2023-12-20T05:48:39;22.00;;;5.93;;
38222;SDS011;24024;51.186;6.458;2023-12-20T05:51:06;20.13;;;5.80;;
38222;SDS011;24024;51.186;6.458;2023-12-20T05:53:33;24.08;;;6.20;;
38222;SDS011;24024;51.186;6.458;2023-12-20T05:56:02;18.00;;;5.07;;
38222;SDS011;24024;51.186;6.458;2023-12-20T05:58:34;23.25;;;6.43;;
38222;SDS011;24024;51.186;6.458;2023-12-20T06:01:04;22.48;;;5.60;;
38222;SDS011;24024;51.186;6.458;2023-12-20T06:03:34;19.88;;;5.07;;
38222;SDS011;24024;51.186;6.458;2023-12-20T06:06:05;18.88;;;4.90;;
38222;SDS011;24024;51.186;6.458;2023-12-20T06:08:42;19.48;;;5.03;;
38222;SDS011;24024;51.186;6.458;2023-12-20T06:11:09;22.83;;;4.88;;
38222;SDS011;24024;51.186;6.458;2023-12-20T06:13:43;20.17;;;5.35;;
38222;SDS011;24024;51.186;6.458;2023-12-20T06:16:11;16.33;;;4.93;;
38222;SDS011;24024;51.186;6.458;2023-12-20T06:18:42;18.85;;;4.90;;
38222;SDS011;24024;51.186;6.458;2023-12-20T06:21:11;17.27;;;4.82;;
38222;SDS011;24024;51.186;6.458;2023-12-20T06:23:39;20.30;;;5.55;;
38222;SDS011;24024;51.186;6.458;2023-12-20T06:26:06;22.70;;;5.78;;
38222;SDS011;24024;51.186;6.458;2023-12-20T06:28:33;21.65;;;5.43;;
38222;SDS011;24024;51.186;6.458;2023-12-20T06:31:00;21.95;;;5.15;;
38222;SDS011;24024;51.186;6.458;2023-12-20T06:33:29;14.90;;;4.30;;
38222;SDS011;24024;51.186;6.458;2023-12-20T06:35:57;22.30;;;5.55;;
38222;SDS011;24024;51.186;6.458;2023-12-20T06:38:27;18.88;;;4.82;;
38222;SDS011;24024;51.186;6.458;2023-12-20T06:40:54;24.40;;;4.93;;
38222;SDS011;24024;51.186;6.458;2023-12-20T06:43:21;18.00;;;4.40;;
38222;SDS011;24024;51.186;6.458;2023-12-20T06:46:08;21.75;;;5.10;;
38222;SDS011;24024;51.186;6.458;2023-12-20T06:48:36;20.20;;;5.38;;
38222;SDS011;24024;51.186;6.458;2023-12-20T06:51:05;15.13;;;4.15;;
38222;SDS011;24024;51.186;6.458;2023-12-20T06:53:32;22.40;;;5.47;;
38222;SDS011;24024;51.186;6.458;2023-12-20T06:55:59;20.00;;;5.30;;
38222;SDS011;24024;51.186;6.458;2023-12-20T06:58:26;17.67;;;4.88;;
38222;SDS011;24024;51.186;6.458;2023-12-20T07:00:53;17.02;;;5.30;;
38222;SDS011;24024;51.186;6.458;2023-12-20T07:03:20;22.85;;;4.97;;
38222;SDS011;24024;51.186;6.458;2023-12-20T07:05:47;22.95;;;5.15;;
38222;SDS011;24024;51.186;6.458;2023-12-20T07:08:14;20.00;;;4.93;;
38222;SDS011;24024;51.186;6.458;2023-12-20T07:10:41;26.80;;;5.63;;
38222;SDS011;24024;51.186;6.458;2023-12-20T07:13:08;22.63;;;5.70;;
38222;SDS011;24024;51.186;6.458;2023-12-20T07:15:35;19.33;;;5.03;;
38222;SDS011;24024;51.186;6.458;2023-12-20T07:18:03;19.98;;;5.50;;
38222;SDS011;24024;51.186;6.458;2023-12-20T07:20:34;22.27;;;5.63;;
38222;SDS011;24024;51.186;6.458;2023-12-20T07:23:03;24.73;;;4.93;;
38222;SDS011;24024;51.186;6.458;2023-12-20T07:25:30;22.35;;;4.95;;
38222;SDS011;24024;51.186;6.458;2023-12-20T07:27:59;20.95;;;5.47;;
38222;SDS011;24024;51.186;6.458;2023-12-20T07:30:26;20.38;;;4.95;;
38222;SDS011;24024;51.186;6.458;2023-12-20T07:32:53;21.17;;;5.32;;
38222;SDS011;24024;51.186;6.458;2023-12-20T07:35:20;20.08;;;5.10;;
38222;SDS011;24024;51.186;6.458;2023-12-20T07:37:47;19.25;;;5.63;;
38222;SDS011;24024;51.186;6.458;2023-12-20T07:40:14;20.38;;;5.30;;
38222;SDS011;24024;51.186;6.458;2023-12-20T07:42:46;18.92;;;5.70;;
38222;SDS011;24024;51.186;6.458;2023-12-20T07:45:12;25.58;;;5.80;;
38222;SDS011;24024;51.186;6.458;2023-12-20T07:47:42;22.33;;;5.10;;
38222;SDS011;24024;51.186;6.458;2023-12-20T07:50:09;21.52;;;5.20;;
38222;SDS011;24024;51.186;6.458;2023-12-20T07:52:37;20.20;;;5.03;;
38222;SDS011;24024;51.186;6.458;2023-12-20T07:55:07;20.63;;;4.85;;
38222;SDS011;24024;51.186;6.458;2023-12-20T07:57:34;24.02;;;5.00;;
38222;SDS011;24024;51.186;6.458;2023-12-20T08:00:01;20.65;;;5.85;;
38222;SDS011;24024;51.186;6.458;2023-12-20T08:02:30;24.55;;;5.13;;
38222;SDS011;24024;51.186;6.458;2023-12-20T08:04:57;23.08;;;4.80;;
38222;SDS011;24024;51.186;6.458;2023-12-20T08:07:23;21.35;;;4.80;;
38222;SDS011;24024;51.186;6.458;2023-12-20T08:09:51;18.35;;;4.95;;
38222;SDS011;24024;51.186;6.458;2023-12-20T08:12:18;20.77;;;5.05;;
38222;SDS011;24024;51.186;6.458;2023-12-20T08:14:47;21.02;;;4.70;;
38222;SDS011;24024;51.186;6.458;2023-12-20T08:17:14;16.55;;;4.28;;
38222;SDS011;24024;51.186;6.458;2023-12-20T08:19:42;20.27;;;4.90;;
38222;SDS011;24024;51.186;6.458;2023-12-20T08:22:11;17.15;;;4.53;;
38222;SDS011;24024;51.186;6.458;2023-12-20T08:24:40;21.27;;;5.03;;
38222;SDS011;24024;51.186;6.458;2023-12-20T08:27:08;20.92;;;4.78;;
38222;SDS011;24024;51.186;6.458;2023-12-20T08:29:35;22.13;;;4.45;;
38222;SDS011;24024;51.186;6.458;2023-12-20T08:32:02;23.02;;;4.70;;
38222;SDS011;24024;51.186;6.458;2023-12-20T08:34:30;22.17;;;4.50;;
38222;SDS011;24024;51.186;6.458;2023-12-20T08:37:00;16.17;;;4.47;;
38222;SDS011;24024;51.186;6.458;2023-12-20T08:39:29;21.95;;;4.60;;
38222;SDS011;24024;51.186;6.458;2023-12-20T08:41:59;17.00;;;4.30;;
38222;SDS011;24024;51.186;6.458;2023-12-20T08:44:26;19.00;;;4.57;;
38222;SDS011;24024;51.186;6.458;2023-12-20T08:46:53;19.85;;;4.18;;
38222;SDS011;24024;51.186;6.458;2023-12-20T08:49:25;17.23;;;4.40;;
38222;SDS011;24024;51.186;6.458;2023-12-20T08:51:52;20.23;;;4.28;;
38222;SDS011;24024;51.186;6.458;2023-12-20T08:54:19;21.38;;;5.10;;
38222;SDS011;24024;51.186;6.458;2023-12-20T08:56:46;18.40;;;4.82;;
38222;SDS011;24024;51.186;6.458;2023-12-20T08:59:13;20.45;;;4.88;;
38222;SDS011;24024;51.186;6.458;2023-12-20T09:01:42;21.40;;;4.75;;
38222;SDS011;24024;51.186;6.458;2023-12-20T09:04:12;23.60;;;4.60;;
38222;SDS011;24024;51.186;6.458;2023-12-20T09:06:39;20.55;;;4.38;;
38222;SDS011;24024;51.186;6.458;2023-12-20T09:09:06;20.00;;;3.60;;
38222;SDS011;24024;51.186;6.458;2023-12-20T09:11:35;17.80;;;3.88;;
38222;SDS011;24024;51.186;6.458;2023-12-20T09:14:03;16.33;;;4.00;;
38222;SDS011;24024;51.186;6.458;2023-12-20T09:16:30;12.50;;;4.00;;
38222;SDS011;24024;51.186;6.458;2023-12-20T09:18:59;24.08;;;4.03;;
38222;SDS011;24024;51.186;6.458;2023-12-20T09:21:28;16.73;;;3.78;;
38222;SDS011;24024;51.186;6.458;2023-12-20T09:23:55;21.67;;;5.45;;
38222;SDS011;24024;51.186;6.458;2023-12-20T09:26:22;16.40;;;3.88;;
38222;SDS011;24024;51.186;6.458;2023-12-20T09:28:49;13.85;;;3.90;;
38222;SDS011;24024;51.186;6.458;2023-12-20T09:31:15;16.98;;;3.38;;
38222;SDS011;24024;51.186;6.458;2023-12-20T09:33:42;19.20;;;3.72;;
38222;SDS011;24024;51.186;6.458;2023-12-20T09:36:09;15.07;;;3.78;;
38222;SDS011;24024;51.186;6.458;2023-12-20T09:38:36;20.20;;;3.63;;
38222;SDS011;24024;51.186;6.458;2023-12-20T09:41:03;22.35;;;4.20;;
38222;SDS011;24024;51.186;6.458;2023-12-20T09:43:30;18.58;;;3.97;;
38222;SDS011;24024;51.186;6.458;2023-12-20T09:46:01;17.70;;;4.03;;
38222;SDS011;24024;51.186;6.458;2023-12-20T09:48:36;21.15;;;4.20;;
38222;SDS011;24024;51.186;6.458;2023-12-20T09:51:06;16.40;;;3.80;;
38222;SDS011;24024;51.186;6.458;2023-12-20T09:53:33;25.42;;;4.45;;
38222;SDS011;24024;51.186;6.458;2023-12-20T09:56:03;18.50;;;3.78;;
38222;SDS011;24024;51.186;6.458;2023-12-20T09:58:32;18.65;;;3.92;;
38222;SDS011;24024;51.186;6.458;2023-12-20T10:00:59;20.55;;;3.63;;
38222;SDS011;24024;51.186;6.458;2023-12-20T10:03:27;20.35;;;4.57;;
38222;SDS011;24024;51.186;6.458;2023-12-20T10:05:55;18.33;;;3.78;;
38222;SDS011;24024;51.186;6.458;2023-12-20T10:08:24;18.60;;;3.95;;
38222;SDS011;24024;51.186;6.458;2023-12-20T10:10:54;16.70;;;3.50;;
38222;SDS011;24024;51.186;6.458;2023-12-20T10:13:21;13.32;;;3.08;;
38222;SDS011;24024;51.186;6.458;2023-12-20T10:15:49;23.60;;;3.88;;
38222;SDS011;24024;51.186;6.458;2023-12-20T10:18:16;18.33;;;4.20;;
38222;SDS011;24024;51.186;6.458;2023-12-20T10:20:43;17.00;;;3.20;;
38222;SDS011;24024;51.186;6.458;2023-12-20T10:23:13;16.85;;;3.33;;
38222;SDS011;24024;51.186;6.458;2023-12-20T10:25:42;14.23;;;4.18;;
38222;SDS011;24024;51.186;6.458;2023-12-20T10:30:40;19.45;;;3.33;;
38222;SDS011;24024;51.186;6.458;2023-12-20T10:33:10;20.23;;;4.10;;
38222;SDS011;24024;51.186;6.458;2023-12-20T10:35:38;14.48;;;3.40;;
38222;SDS011;24024;51.186;6.458;2023-12-20T10:38:11;14.20;;;3.83;;
38222;SDS011;24024;51.186;6.458;2023-12-20T10:40:39;20.42;;;3.47;;
38222;SDS011;24024;51.186;6.458;2023-12-20T10:43:09;17.77;;;3.40;;
38222;SDS011;24024;51.186;6.458;2023-12-20T10:45:36;20.75;;;3.83;;
38222;SDS011;24024;51.186;6.458;2023-12-20T10:48:03;17.75;;;3.85;;
38222;SDS011;24024;51.186;6.458;2023-12-20T10:50:31;20.15;;;4.03;;
38222;SDS011;24024;51.186;6.458;2023-12-20T10:53:02;18.42;;;4.90;;
38222;SDS011;24024;51.186;6.458;2023-12-20T10:55:32;13.65;;;3.70;;
38222;SDS011;24024;51.186;6.458;2023-12-20T10:58:07;19.70;;;3.85;;
38222;SDS011;24024;51.186;6.458;2023-12-20T11:00:39;18.52;;;3.53;;
38222;SDS011;24024;51.186;6.458;2023-12-20T11:03:09;18.75;;;4.88;;
38222;SDS011;24024;51.186;6.458;2023-12-20T11:05:49;17.83;;;3.60;;
38222;SDS011;24024;51.186;6.458;2023-12-20T11:08:28;12.93;;;3.30;;
38222;SDS011;24024;51.186;6.458;2023-12-20T11:11:11;21.13;;;3.50;;
38222;SDS011;24024;51.186;6.458;2023-12-20T11:14:04;18.88;;;4.10;;
38222;SDS011;24024;51.186;6.458;2023-12-20T11:16:38;25.25;;;3.55;;
38222;SDS011;24024;51.186;6.458;2023-12-20T11:19:20;19.63;;;2.95;;
38222;SDS011;24024;51.186;6.458;2023-12-20T11:21:47;12.70;;;3.05;;
38222;SDS011;24024;51.186;6.458;2023-12-20T11:24:17;19.38;;;3.90;;
38222;SDS011;24024;51.186;6.458;2023-12-20T11:26:48;13.63;;;3.72;;
38222;SDS011;24024;51.186;6.458;2023-12-20T11:29:30;16.50;;;3.38;;
38222;SDS011;24024;51.186;6.458;2023-12-20T11:32:03;15.07;;;3.75;;
38222;SDS011;24024;51.186;6.458;2023-12-20T11:34:53;16.88;;;3.60;;
38222;SDS011;24024;51.186;6.458;2023-12-20T11:37:21;17.40;;;4.10;;
38222;SDS011;24024;51.186;6.458;2023-12-20T11:39:55;17.10;;;4.15;;
38222;SDS011;24024;51.186;6.458;2023-12-20T11:42:25;24.08;;;4.05;;
38222;SDS011;24024;51.186;6.458;2023-12-20T11:44:51;15.85;;;4.38;;
38222;SDS011;24024;51.186;6.458;2023-12-20T11:47:19;13.95;;;3.25;;
38222;SDS011;24024;51.186;6.458;2023-12-20T11:49:48;15.30;;;3.25;;
38222;SDS011;24024;51.186;6.458;2023-12-20T11:52:15;15.68;;;3.47;;
38222;SDS011;24024;51.186;6.458;2023-12-20T11:54:42;14.82;;;3.40;;
38222;SDS011;24024;51.186;6.458;2023-12-20T11:57:09;18.92;;;4.63;;
38222;SDS011;24024;51.186;6.458;2023-12-20T11:59:36;21.58;;;4.03;;
38222;SDS011;24024;51.186;6.458;2023-12-20T12:02:03;18.48;;;4.05;;
38222;SDS011;24024;51.186;6.458;2023-12-20T12:04:33;16.83;;;4.30;;
38222;SDS011;24024;51.186;6.458;2023-12-20T12:07:01;18.98;;;4.30;;
38222;SDS011;24024;51.186;6.458;2023-12-20T12:09:27;17.08;;;4.18;;
38222;SDS011;24024;51.186;6.458;2023-12-20T12:11:54;18.10;;;4.43;;
38222;SDS011;24024;51.186;6.458;2023-12-20T12:14:23;19.63;;;4.65;;
38222;SDS011;24024;51.186;6.458;2023-12-20T12:16:50;23.13;;;4.57;;
38222;SDS011;24024;51.186;6.458;2023-12-20T12:19:20;19.55;;;4.68;;
38222;SDS011;24024;51.186;6.458;2023-12-20T12:24:41;21.52;;;4.75;;
38222;SDS011;24024;51.186;6.458;2023-12-20T12:27:12;19.73;;;4.03;;
38222;SDS011;24024;51.186;6.458;2023-12-20T12:29:40;20.08;;;4.50;;
38222;SDS011;24024;51.186;6.458;2023-12-20T12:32:07;21.60;;;4.90;;
38222;SDS011;24024;51.186;6.458;2023-12-20T12:34:35;22.30;;;4.95;;
38222;SDS011;24024;51.186;6.458;2023-12-20T12:37:05;16.95;;;4.45;;
38222;SDS011;24024;51.186;6.458;2023-12-20T12:39:35;15.32;;;3.65;;
38222;SDS011;24024;51.186;6.458;2023-12-20T12:42:03;15.35;;;3.80;;
38222;SDS011;24024;51.186;6.458;2023-12-20T12:44:32;21.17;;;4.20;;
38222;SDS011;24024;51.186;6.458;2023-12-20T12:46:59;23.02;;;4.60;;
38222;SDS011;24024;51.186;6.458;2023-12-20T12:49:28;13.30;;;4.40;;
38222;SDS011;24024;51.186;6.458;2023-12-20T12:51:55;19.25;;;4.55;;
38222;SDS011;24024;51.186;6.458;2023-12-20T12:54:24;18.63;;;4.80;;
38222;SDS011;24024;51.186;6.458;2023-12-20T12:56:55;19.48;;;4.68;;
38222;SDS011;24024;51.186;6.458;2023-12-20T12:59:22;21.38;;;5.32;;
38222;SDS011;24024;51.186;6.458;2023-12-20T13:01:48;21.30;;;5.15;;
38222;SDS011;24024;51.186;6.458;2023-12-20T13:04:15;17.83;;;4.72;;
38222;SDS011;24024;51.186;6.458;2023-12-20T13:06:42;13.23;;;4.85;;
38222;SDS011;24024;51.186;6.458;2023-12-20T13:09:11;20.10;;;5.53;;
38222;SDS011;24024;51.186;6.458;2023-12-20T13:11:38;19.35;;;5.78;;
38222;SDS011;24024;51.186;6.458;2023-12-20T13:14:07;16.77;;;4.85;;
38222;SDS011;24024;51.186;6.458;2023-12-20T13:16:37;17.75;;;4.95;;
38222;SDS011;24024;51.186;6.458;2023-12-20T13:19:06;12.85;;;4.75;;
38222;SDS011;24024;51.186;6.458;2023-12-20T13:21:33;14.85;;;4.53;;
38222;SDS011;24024;51.186;6.458;2023-12-20T13:24:00;16.65;;;4.63;;
38222;SDS011;24024;51.186;6.458;2023-12-20T13:26:26;13.07;;;4.97;;
38222;SDS011;24024;51.186;6.458;2023-12-20T13:28:53;17.70;;;4.75;;
38222;SDS011;24024;51.186;6.458;2023-12-20T13:31:23;14.68;;;4.50;;
38222;SDS011;24024;51.186;6.458;2023-12-20T13:33:50;16.25;;;4.95;;
38222;SDS011;24024;51.186;6.458;2023-12-20T13:36:21;17.70;;;4.75;;
38222;SDS011;24024;51.186;6.458;2023-12-20T13:38:52;18.10;;;5.30;;
38222;SDS011;24024;51.186;6.458;2023-12-20T13:41:20;13.52;;;5.25;;
38222;SDS011;24024;51.186;6.458;2023-12-20T13:43:47;18.80;;;6.97;;
38222;SDS011;24024;51.186;6.458;2023-12-20T13:46:17;16.90;;;4.85;;
38222;SDS011;24024;51.186;6.458;2023-12-20T13:48:43;13.07;;;4.43;;
38222;SDS011;24024;51.186;6.458;2023-12-20T13:51:12;18.70;;;5.30;;
38222;SDS011;24024;51.186;6.458;2023-12-20T13:53:41;14.65;;;4.63;;
38222;SDS011;24024;51.186;6.458;2023-12-20T13:56:08;16.17;;;4.75;;
38222;SDS011;24024;51.186;6.458;2023-12-20T13:58:37;19.88;;;4.53;;
38222;SDS011;24024;51.186;6.458;2023-12-20T14:01:08;16.45;;;4.53;;
38222;SDS011;24024;51.186;6.458;2023-12-20T14:03:38;16.35;;;4.43;;
38222;SDS011;24024;51.186;6.458;2023-12-20T14:06:07;17.92;;;5.10;;
38222;SDS011;24024;51.186;6.458;2023-12-20T14:08:36;21.55;;;4.70;;
38222;SDS011;24024;51.186;6.458;2023-12-20T14:11:03;14.98;;;5.55;;
38222;SDS011;24024;51.186;6.458;2023-12-20T14:13:32;16.88;;;4.40;;
38222;SDS011;24024;51.186;6.458;2023-12-20T14:15:59;16.88;;;4.40;;
38222;SDS011;24024;51.186;6.458;2023-12-20T14:18:27;14.45;;;4.82;;
38222;SDS011;24024;51.186;6.458;2023-12-20T14:20:56;16.75;;;4.55;;
38222;SDS011;24024;51.186;6.458;2023-12-20T14:23:23;15.82;;;4.15;;
38222;SDS011;24024;51.186;6.458;2023-12-20T14:25:50;17.50;;;4.70;;
38222;SDS011;24024;51.186;6.458;2023-12-20T14:28:18;14.85;;;4.38;;
38222;SDS011;24024;51.186;6.458;2023-12-20T14:30:45;17.77;;;4.47;;
38222;SDS011;24024;51.186;6.458;2023-12-20T14:33:12;14.48;;;4.32;;
38222;SDS011;24024;51.186;6.458;2023-12-20T14:35:40;16.45;;;4.65;;
38222;SDS011;24024;51.186;6.458;2023-12-20T14:38:11;15.63;;;5.05;;
38222;SDS011;24024;51.186;6.458;2023-12-20T14:40:41;17.05;;;4.13;;
38222;SDS011;24024;51.186;6.458;2023-12-20T14:43:07;15.65;;;5.10;;
38222;SDS011;24024;51.186;6.458;2023-12-20T14:45:34;12.55;;;3.90;;
38222;SDS011;24024;51.186;6.458;2023-12-20T14:48:01;14.27;;;4.60;;